Latest Weather Observations for Cloncurry

IDQ60801

Issued at 1:32 pm EST Tuesday 28 June 2016 (issued every 30 minutes, with the page automatically refreshed every 10 minutes)

About weather observations | Map of weather stations | Latest weather observations for QLD | Other Formats
Station Details ID: 029141 Name: CLONCURRY AIRPORT Lat: -20.67 Lon: 140.50 Height: 186.0 m
Data from the previous 72 hours. | See also: Recent months at Cloncurry
Date/Time
EST
Temp
°C
App
Temp
°C
Dew
Point
°C
Rel
Hum
%
Delta-T
°C
Wind Press
QNH
hPa
Press
MSL
hPa
Rain since
9am
mm
Dir  Spd
km/h
Gust
km/h
Spd
kts
Gust
kts
28/01:30pm 18.4 12.7 3.1 36 7.1 SE 22 33 12 18 1022.6 1022.2 0.0
28/01:00pm 17.0 10.6 3.0 39 6.4 SE 26 35 14 19 1023.2 1022.8 0.0
28/12:30pm 16.7 10.2 2.7 39 6.4 SE 26 35 14 19 1023.6 1023.2 0.0
28/12:00pm 16.1 10.1 3.5 43 5.8 SE 24 32 13 17 1024.0 1023.6 0.0
28/11:30am 15.9 10.0 4.0 45 5.6 ESE 24 32 13 17 1024.3 1023.9 0.0
28/11:00am 15.1 8.5 4.2 48 5.1 SE 28 35 15 19 1024.6 1024.2 0.0
28/10:30am 13.7 7.0 3.8 51 4.5 SE 28 35 15 19 1024.9 1024.4 0.0
28/10:00am 13.1 6.1 4.0 54 4.1 SE 30 39 16 21 1025.0 1024.5 0.0
28/09:30am 12.7 5.2 4.4 57 3.8 SE 33 44 18 24 1024.9 1024.4 0.0
28/09:00am 11.8 4.4 4.1 59 3.5 SE 32 44 17 24 1024.9 1024.4 0.0
28/08:30am 11.4 4.4 3.9 60 3.4 SE 30 39 16 21 1024.3 1023.9 0.0
28/08:17am 11.1 4.4 3.9 61 3.2 SE 28 46 15 25 1024.2 1023.8 0.0
28/08:00am 10.7 6.2 4.4 65 2.8 SSE 17 24 9 13 1024.1 1023.7 0.0
28/07:30am 8.5 5.5 3.9 73 2.0 SSE 9 13 5 7 1023.7 1023.3 0.0
28/07:00am 9.4 4.9 4.0 69 2.4 SSE 17 20 9 11 1023.4 1023.0 0.0
28/06:30am 10.0 5.2 4.6 69 2.4 SSE 19 26 10 14 1023.2 1022.8 0.0
28/06:00am 9.2 5.2 5.0 75 1.9 SSE 15 20 8 11 1023.1 1022.7 0.0
28/05:30am 9.1 5.5 4.9 75 1.9 SSE 13 15 7 8 1023.0 1022.6 0.0
28/05:00am 9.3 5.3 5.1 75 1.9 SSE 15 22 8 12 1022.8 1022.4 0.0
28/04:30am 9.3 5.4 5.3 76 1.8 SSE 15 17 8 9 1022.7 1022.3 0.0
28/04:00am 9.4 5.5 5.4 76 1.8 SSE 15 17 8 9 1022.6 1022.2 0.0
28/03:30am 9.8 6.4 5.8 76 1.9 S 13 17 7 9 1022.8 1022.4 0.0
28/03:00am 10.0 6.5 5.6 74 2.0 S 13 17 7 9 1022.8 1022.4 0.0
28/02:30am 10.5 7.1 5.7 72 2.2 S 13 17 7 9 1023.0 1022.6 0.0
28/02:00am 10.9 7.5 5.7 70 2.4 S 13 17 7 9 1023.2 1022.8 0.0
28/01:30am 11.3 7.5 5.8 69 2.6 S 15 17 8 9 1023.1 1022.7 0.0
28/01:00am 11.7 8.3 6.0 68 2.7 S 13 20 7 11 1022.8 1022.4 0.0
28/12:30am 12.1 9.1 5.9 66 2.9 SSE 11 15 6 8 1022.8 1022.4 0.0
28/12:00am 12.7 8.6 6.1 64 3.1 S 17 22 9 12 1022.8 1022.4 0.0
 
Date/Time
EST
Temp
°C
App
Temp
°C
Dew
Point
°C
Rel
Hum
%
Delta-T
°C
Wind Press
QNH
hPa
Press
MSL
hPa
Rain since
9am
mm
Dir  Spd
km/h
Gust
km/h
Spd
kts
Gust
kts
27/11:30pm 13.4 8.9 6.0 61 3.5 S 19 28 10 15 1022.7 1022.3 0.0
27/11:00pm 13.5 9.4 6.4 62 3.4 S 17 20 9 11 1022.7 1022.3 0.0
27/10:30pm 14.0 10.0 6.6 61 3.6 S 17 20 9 11 1022.7 1022.3 0.0
27/10:00pm 14.6 10.2 6.7 59 3.9 S 19 22 10 12 1022.6 1022.2 0.0
27/09:30pm 14.9 10.5 6.7 58 4.0 S 19 26 10 14 1022.4 1022.0 0.0
27/09:00pm 15.4 10.9 6.9 57 4.2 S 20 32 11 17 1022.2 1021.8 0.0
27/08:30pm 15.8 11.5 7.1 56 4.3 S 19 24 10 13 1021.9 1021.4 0.0
27/08:00pm 16.0 12.1 7.0 55 4.5 SSE 17 22 9 12 1021.6 1021.1 0.0
27/07:30pm 16.6 12.2 7.3 54 4.7 S 20 26 11 14 1021.1 1020.6 0.0
27/07:00pm 17.0 13.2 7.6 54 4.8 S 17 22 9 12 1020.7 1020.2 0.0
27/06:30pm 17.6 13.4 7.6 52 5.1 S 19 22 10 12 1020.3 1019.8 0.0
27/06:00pm 18.4 13.3 7.5 49 5.6 S 24 30 13 16 1019.8 1019.3 0.0
27/05:30pm 19.6 15.3 7.7 46 6.2 S 20 28 11 15 1019.4 1018.9 0.0
27/05:00pm 20.2 15.5 7.9 45 6.4 S 22 28 12 15 1018.9 1018.5 0.0
27/04:30pm 20.7 16.2 8.4 45 6.5 S 22 30 12 16 1018.6 1018.2 0.0
27/04:00pm 20.7 15.8 8.4 45 6.5 SSW 24 35 13 19 1018.5 1018.1 0.0
27/03:30pm 20.9 16.0 8.5 45 6.6 S 24 35 13 19 1018.5 1018.1 0.0
27/03:00pm 20.8 16.3 8.4 45 6.5 S 22 32 12 17 1018.6 1018.2 0.0
27/02:30pm 21.1 16.3 9.0 46 6.5 SSW 24 35 13 19 1019.0 1018.6 0.0
27/02:00pm 20.9 16.5 8.9 46 6.4 S 22 32 12 17 1019.4 1018.9 0.0
27/01:30pm 20.3 15.5 8.9 48 6.1 S 24 30 13 16 1019.7 1019.2 0.0
27/01:00pm 19.9 15.6 9.2 50 5.7 S 22 33 12 18 1020.1 1019.6 0.0
27/12:30pm 19.4 15.0 9.0 51 5.5 S 22 30 12 16 1020.4 1019.9 0.0
27/12:00pm 18.6 13.8 8.8 53 5.1 S 24 33 13 18 1020.7 1020.2 0.0
27/11:30am 19.1 15.3 9.9 55 4.9 S 20 30 11 16 1020.8 1020.3 0.0
27/11:00am 17.7 13.5 9.6 59 4.3 S 22 32 12 17 1021.0 1020.5 0.0
27/10:30am 17.4 11.4 10.1 62 3.9 S 32 39 17 21 1021.1 1020.6 0.0
27/10:00am 16.4 11.0 9.6 64 3.6 S 28 37 15 20 1021.1 1020.6 0.0
27/09:30am 16.0 11.0 9.4 65 3.5 S 26 33 14 18 1021.0 1020.5 0.0
27/09:00am 15.3 10.2 9.2 67 3.2 S 26 32 14 17 1020.5 1020.0 0.0
27/08:30am 14.9 10.2 9.3 69 2.9 S 24 32 13 17 1020.0 1019.5 0.0
27/08:00am 14.3 9.2 9.3 72 2.6 S 26 33 14 18 1019.7 1019.2 0.0
27/07:30am 14.2 11.0 9.8 75 2.3 S 17 22 9 12 1019.2 1018.7 0.0
27/07:00am 14.5 10.9 9.7 73 2.5 S 19 26 10 14 1018.6 1018.2 0.0
27/06:30am 14.8 10.9 9.6 71 2.7 S 20 26 11 14 1018.1 1017.7 0.0
27/06:00am 15.1 10.9 9.7 70 2.8 S 22 32 12 17 1017.7 1017.3 0.0
27/05:30am 15.4 11.1 9.5 68 3.1 S 22 33 12 18 1017.4 1016.9 0.0
27/05:00am 15.9 10.9 9.6 66 3.3 S 26 35 14 19 1017.1 1016.6 0.0
27/04:30am 16.2 11.0 8.9 62 3.8 S 26 33 14 18 1016.8 1016.3 0.0
27/04:00am 16.7 11.7 8.1 57 4.4 S 24 32 13 17 1016.8 1016.3 0.0
27/03:30am 17.3 12.6 6.2 48 5.5 S 20 28 11 15 1016.5 1016.0 0.0
27/03:00am 17.7 12.6 5.9 46 5.8 S 22 32 12 17 1016.4 1015.9 0.0
27/02:30am 18.2 13.1 5.8 44 6.1 S 22 30 12 16 1016.3 1015.8 0.0
27/02:00am 18.6 13.8 5.8 43 6.3 S 20 30 11 16 1016.4 1015.9 0.0
27/01:30am 19.1 14.4 5.9 42 6.6 S 20 26 11 14 1016.4 1015.9 0.0
27/01:00am 19.7 14.2 6.1 41 6.8 S 24 35 13 19 1016.1 1015.6 0.0
27/12:30am 20.4 13.9 6.7 41 7.0 S 30 41 16 22 1015.8 1015.3 0.0
27/12:00am 21.0 16.5 8.6 45 6.6 SSW 22 28 12 15 1015.3 1014.8 0.0
 
Date/Time
EST
Temp
°C
App
Temp
°C
Dew
Point
°C
Rel
Hum
%
Delta-T
°C
Wind Press
QNH
hPa
Press
MSL
hPa
Rain since
9am
mm
Dir  Spd
km/h
Gust
km/h
Spd
kts
Gust
kts
26/11:30pm 20.7 17.7 10.8 53 5.5 S 17 26 9 14 1015.0 1014.5 0.0
26/11:00pm 18.9 16.6 11.7 63 4.0 S 15 17 8 9 1014.7 1014.2 0.0
26/10:30pm 18.5 18.0 12.0 66 3.6 E 6 7 3 4 1014.3 1013.8 0.0
26/10:00pm 18.5 18.0 12.7 69 3.3 E 7 9 4 5 1014.1 1013.6 0.0
26/09:30pm 19.1 18.6 12.1 64 3.9 E 6 7 3 4 1014.0 1013.5 0.0
26/09:00pm 19.5 19.1 11.0 58 4.7 E 4 6 2 3 1013.8 1013.3 0.0
26/08:30pm 20.4 19.8 11.6 57 4.9 E 6 6 3 3 1013.7 1013.2 0.0
26/08:00pm 21.0 20.5 10.8 52 5.6 E 4 6 2 3 1013.3 1012.9 0.0
26/07:30pm 22.2 21.5 10.0 46 6.7 E 4 6 2 3 1013.0 1012.6 0.0
26/07:00pm 24.0 23.4 10.3 42 7.6 E 4 6 2 3 1012.7 1012.2 0.0
26/06:30pm 25.8 24.3 8.3 33 9.5 E 6 7 3 4 1012.3 1011.8 0.0
26/06:00pm 27.1 25.2 7.5 29 10.6 E 7 9 4 5 1012.1 1011.6 0.0
26/05:30pm 28.5 26.1 7.1 26 11.5 E 9 13 5 7 1012.0 1011.5 0.0
26/05:00pm 29.0 26.2 7.0 25 11.9 E 11 13 6 7 1011.9 1011.4 0.0
26/04:30pm 29.0 26.1 6.4 24 12.1 E 11 15 6 8 1011.9 1011.4 0.0
26/04:00pm 28.5 26.0 6.6 25 11.7 E 9 15 5 8 1012.0 1011.5 0.0
26/03:30pm 28.8 26.1 5.6 23 12.2 E 9 17 5 9 1012.1 1011.6 0.0
26/03:00pm 28.8 26.5 5.6 23 12.2 E 7 15 4 8 1012.4 1011.9 0.0
26/02:30pm 27.8 25.4 5.4 24 11.7 E 7 13 4 7 1012.7 1012.2 0.0
26/02:00pm 27.2 24.6 4.3 23 11.7 E 7 13 4 7 1013.1 1012.7 0.0
26/01:30pm 27.4 24.5 4.5 23 11.7 E 9 13 5 7 1013.6 1013.1 0.0
26/01:00pm 26.3 23.3 4.1 24 11.2 E 9 17 5 9 1014.5 1014.0 0.0
26/12:30pm 25.9 23.6 4.9 26 10.7 E 6 7 3 4 1014.9 1014.4 0.0
26/12:00pm 24.9 22.4 3.5 25 10.6 E 6 9 3 5 1015.6 1015.1 0.0
26/11:30am 23.7 20.5 3.1 26 10.0 E 9 13 5 7 1016.0 1015.5 0.0
26/11:00am 22.7 19.8 2.8 27 9.6 E 7 11 4 6 1016.0 1015.5 0.0
26/10:30am 22.3 19.2 3.4 29 9.2 E 9 15 5 8 1016.3 1015.8 0.0
26/10:00am 21.3 18.3 4.0 32 8.4 E 9 13 5 7 1016.4 1015.9 0.0
26/09:30am 20.1 17.1 4.2 35 7.7 E 9 13 5 7 1016.5 1016.0 0.0
26/09:00am 18.6 15.7 4.4 39 6.8 E 9 13 5 7 1016.6 1016.1 0.0
26/08:30am 16.9 14.0 4.6 44 5.9 E 9 15 5 8 1016.5 1016.0 0.0
26/08:00am 14.2 11.3 6.6 60 3.7 E 11 15 6 8 1016.6 1016.1 0.0
26/07:30am 12.0 9.5 6.5 69 2.6 E 9 11 5 6 1016.1 1015.6 0.0
26/07:00am 12.0 11.3 6.9 71 2.5 CALM 0 0 0 0 1015.5 1015.0 0.0
26/06:30am 12.1 11.2 5.9 66 2.9 CALM 0 6 0 3 1015.7 1015.2 0.0
26/06:00am 14.1 11.8 4.7 53 4.4 E 6 9 3 5 1015.4 1014.9 0.0
26/05:30am 13.8 11.4 4.4 53 4.4 E 6 7 3 4 1015.2 1014.7 0.0
26/05:00am 14.9 11.7 3.1 45 5.4 E 9 13 5 7 1015.1 1014.6 0.0
26/04:30am 14.9 11.9 4.0 48 5.1 E 9 11 5 6 1015.2 1014.7 0.0
26/04:00am 14.0 11.2 5.1 55 4.2 E 9 13 5 7 1015.3 1014.8 0.0
26/03:30am 14.0 11.6 5.1 55 4.2 E 7 9 4 5 1015.2 1014.7 0.0
26/03:00am 14.6 11.4 5.1 53 4.5 E 11 13 6 7 1015.3 1014.8 0.0
26/02:30am 13.9 10.8 5.5 57 4.0 E 11 13 6 7 1015.8 1015.3 0.0
26/02:00am 14.5 11.1 5.8 56 4.2 E 13 15 7 8 1015.9 1015.4 0.0
26/01:30am 14.2 11.3 6.6 60 3.7 E 11 13 6 7 1016.0 1015.5 0.0
26/01:00am 13.7 11.6 5.6 58 3.8 E 6 7 3 4 1016.2 1015.7 0.0
26/12:30am 15.5 12.9 6.0 53 4.6 E 9 11 5 6 1016.1 1015.6 0.0
26/12:00am 14.7 12.6 6.8 59 3.9 E 7 11 4 6 1016.5 1016.0 0.0
 
Date/Time
EST
Temp
°C
App
Temp
°C
Dew
Point
°C
Rel
Hum
%
Delta-T
°C
Wind Press
QNH
hPa
Press
MSL
hPa
Rain since
9am
mm
Dir  Spd
km/h
Gust
km/h
Spd
kts
Gust
kts
25/11:30pm 15.4 12.9 6.4 55 4.4 E 9 9 5 5 1016.6 1016.1 0.0
25/11:00pm 14.8 12.8 6.9 59 3.9 E 7 9 4 5 1016.6 1016.1 0.0
25/10:30pm 15.8 13.2 6.3 53 4.7 E 9 9 5 5 1016.7 1016.2 0.0
25/10:00pm 16.4 15.4 5.4 48 5.3 CALM 0 0 0 0 1016.8 1016.3 0.0
25/09:30pm 16.2 13.9 5.5 49 5.2 E 7 9 4 5 1016.9 1016.4 0.0
25/09:00pm 17.5 14.7 5.1 44 6.0 E 9 11 5 6 1016.9 1016.4 0.0
25/08:30pm 18.0 14.3 4.6 41 6.5 E 13 15 7 8 1016.8 1016.3 0.0
25/08:00pm 18.2 14.5 4.4 40 6.6 E 13 13 7 7 1016.7 1016.2 0.0
25/07:30pm 19.3 15.5 3.9 36 7.4 E 13 15 7 8 1016.5 1016.0 0.0
25/07:00pm 20.1 16.5 2.9 32 8.1 E 11 13 6 7 1016.2 1015.7 0.0
25/06:30pm 21.3 17.6 2.1 28 9.0 E 11 13 6 7 1015.9 1015.4 0.0
25/06:00pm 22.2 18.0 1.8 26 9.6 E 13 17 7 9 1015.9 1015.4 0.0
25/05:30pm 23.2 18.6 1.5 24 10.2 E 15 20 8 11 1015.7 1015.2 0.0
25/05:00pm 23.8 18.7 0.8 22 10.7 E 17 20 9 11 1015.7 1015.2 0.0
25/04:30pm 24.1 19.2 2.3 24 10.5 E 17 22 9 12 1015.7 1015.2 0.0
25/04:00pm 23.9 19.5 2.7 25 10.3 E 15 20 8 11 1015.7 1015.2 0.0
25/03:30pm 24.0 19.2 2.8 25 10.3 E 17 26 9 14 1015.6 1015.1 0.0
25/03:00pm 23.7 19.1 3.6 27 9.9 SE 17 24 9 13 1015.9 1015.4 0.0
25/02:30pm 22.9 18.2 3.4 28 9.5 SE 17 24 9 13 1016.3 1015.8 0.0
25/02:00pm 22.4 17.8 3.5 29 9.2 SE 17 24 9 13 1016.8 1016.3 0.0

Other Formats:

Comma delimited format used in spreadsheet applications
http://www.bom.gov.au/fwo/IDQ60801/IDQ60801.94335.axf

JavaScript Object Notation format (JSON) in row-major order
http://www.bom.gov.au/fwo/IDQ60801/IDQ60801.94335.json